Thursday, January 18, 2018, 12:14 AM GMT
Back to Local

CYYY, Mont Joli, Que.

Location: , , Canada Lat: 48.6
Local Time: 12:14 AM GMT ( 0:14 GMT) Lon: -68.217
Time Zone: GMT Elev: 157 ft

Show me the last for .
Show Decoded

2018-01-18 00:00 METAR CYYY 180000Z 17005KT 120V230 15SM FEW030 SCT170 M09/M12 A3002 RMK SC1AC3
                 SLP173 =
2018-01-17 23:00 METAR CYYY 172300Z 20007KT 15SM SCT035 M08/M11 A3005 RMK SC3 SLP181 =
2018-01-17 22:00 METAR CYYY 172200Z 14004KT 15SM SCT035 M11/M13 A3007 RMK SC3 SLP190 =
2018-01-17 21:00 METAR CYYY 172100Z 10004KT 15SM FEW028 M11/M12 A3010 RMK SC2 SLP199 =
2018-01-17 20:36 METAR CYYY 172036Z 07004KT 15SM FEW028 M09/M11 A3010 RMK SC2 SLP201 =
2018-01-17 20:00 METAR CYYY 172000Z 36003KT 15SM -SN BKN026 M08/M10 A3012 RMK SC6 SLP207 =
2018-01-17 19:00 METAR CYYY 171900Z 24004KT 210V270 15SM -SN OVC038 M06/M10 A3015 RMK SC8 SLP215
                 =
2018-01-17 18:49 METAR CYYY 171849Z 23004KT 15SM -SN OVC038 M06/M10 A3015 RMK SC8 SLP216 =
2018-01-17 18:00 METAR CYYY 171800Z 15003KT 15SM BKN057 M09/M12 A3018 RMK SC5 SLP226 =
2018-01-17 17:00 METAR CYYY 171700Z 00000KT 15SM FEW057 BKN068 M09/M13 A3022 RMK SC1AC4 PRESFR
                 SLP240 =
2018-01-17 16:00 METAR CYYY 171600Z 26003KT 15SM FEW023 BKN067 M10/M13 A3027 RMK SC1AC5 SLP258 =
2018-01-17 15:00 METAR CYYY 171500Z 13004KT 15SM FEW020 BKN050 M13/M15 A3030 RMK SC1SC5 SLP268 =
2018-01-17 14:05 METAR CYYY 171405Z 16005KT 15SM FEW018 FEW120 M14/M16 A3032 RMK SC1AC1 SLP276 =
2018-01-17 14:00 METAR CYYY 171400Z 16005KT 15SM -SN FEW015 M14/M17 A3032 RMK SC2 SLP276 =
2018-01-17 13:00 METAR CYYY 171300Z 20006KT 15SM -SN SCT015 M13/M15 A3034 RMK SC4 SLP281 =
2018-01-17 12:42 METAR CYYY 171242Z 21007KT 15SM -SN BKN015 M13/M15 A3034 RMK SC7 SLP282 =
2018-01-17 12:00 METAR CYYY 171200Z 17004KT 15SM BKN018 M14/M17 A3035 RMK SC7 SLP284 =
2018-01-17 11:00 METAR CYYY 171100Z 21007KT 15SM FEW018 M14/M16 A3035 RMK SC2 SLP286 =
2018-01-17 10:00 METAR CYYY 171000Z 21011KT 15SM SCT018 M14/M17 A3035 RMK SC4 SLP286 =
2018-01-17 09:00 METAR CYYY 170900Z 21011KT 15SM BKN018 M14/M17 A3036 RMK SC6 SLP288 =
2018-01-17 08:00 METAR CYYY 170800Z 21008KT 15SM BKN021 M14/M17 A3036 RMK SC6 SLP289 =
2018-01-17 07:00 METAR CYYY 170700Z 20009KT 15SM FEW020 M14/M17 A3037 RMK SC2 SLP292 =
2018-01-17 06:00 METAR CYYY 170600Z 16009KT 15SM FEW020 M17/M20 A3037 RMK SC2 SLP290 =
2018-01-17 05:00 METAR CYYY 170500Z 16008KT 15SM -SN SCT020 M16/M19 A3038 RMK SC4 SLP294 =
2018-01-17 04:00 METAR CYYY 170400Z 17006KT 15SM -SN BKN022 M16/M19 A3039 RMK SC6 SLP298 =
2018-01-17 03:00 METAR CYYY 170300Z 19007KT 15SM -SN BKN023 M14/M17 A3041 RMK SC7 SLP305 =
2018-01-17 02:36 METAR CYYY 170236Z 16006KT 15SM -SN BKN026 M16/M18 A3041 RMK SC6 SLP304 =
2018-01-17 02:00 METAR CYYY 170200Z 16006KT 15SM BKN028 M17/M19 A3040 RMK SC6 SLP303 =
2018-01-17 01:36 METAR CYYY 170136Z 16004KT 15SM BKN029 M16/M18 A3041 RMK SC7 SLP305 =
2018-01-17 01:00 METAR CYYY 170100Z 19003KT 15SM -SN OVC029 M15/M18 A3043 RMK SC8 SLP311 =

Support USWX by starting your Amazon purchase here.